sensor_id;sensor_type;location;lat;lon;timestamp;temperature;humidity
70867;HTU21D;58487;53.474;49.470;2023-03-01T00:01:14;-3.77;103.66
70867;HTU21D;58487;53.474;49.470;2023-03-01T00:03:42;-3.43;97.27
70867;HTU21D;58487;53.474;49.470;2023-03-01T00:06:08;-3.52;100.79
70867;HTU21D;58487;53.474;49.470;2023-03-01T00:08:35;-3.63;102.41
70867;HTU21D;58487;53.474;49.470;2023-03-01T00:13:35;-3.62;97.31
70867;HTU21D;58487;53.474;49.470;2023-03-01T00:16:06;-3.64;102.75
70867;HTU21D;58487;53.474;49.470;2023-03-01T00:18:33;-3.60;103.26
70867;HTU21D;58487;53.474;49.470;2023-03-01T00:21:00;-3.70;105.25
70867;HTU21D;58487;53.474;49.470;2023-03-01T00:23:26;-3.75;111.42
70867;HTU21D;58487;53.474;49.470;2023-03-01T00:25:53;-3.64;115.76
70867;HTU21D;58487;53.474;49.470;2023-03-01T00:28:20;-3.56;107.56
70867;HTU21D;58487;53.474;49.470;2023-03-01T00:30:47;-3.69;118.99
70867;HTU21D;58487;53.474;49.470;2023-03-01T00:33:14;-3.64;105.87
70867;HTU21D;58487;53.474;49.470;2023-03-01T00:35:40;-3.61;103.51
70867;HTU21D;58487;53.474;49.470;2023-03-01T00:38:06;-3.70;96.69
70867;HTU21D;58487;53.474;49.470;2023-03-01T00:40:34;-3.71;97.25
70867;HTU21D;58487;53.474;49.470;2023-03-01T00:43:01;-3.62;114.13
70867;HTU21D;58487;53.474;49.470;2023-03-01T00:45:28;-3.71;111.61
70867;HTU21D;58487;53.474;49.470;2023-03-01T00:47:54;-3.71;107.14
70867;HTU21D;58487;53.474;49.470;2023-03-01T00:50:20;-3.72;113.19
70867;HTU21D;58487;53.474;49.470;2023-03-01T00:52:46;-3.75;113.03
70867;HTU21D;58487;53.474;49.470;2023-03-01T00:55:13;-3.86;99.71
70867;HTU21D;58487;53.474;49.470;2023-03-01T00:57:39;-3.68;100.75
70867;HTU21D;58487;53.474;49.470;2023-03-01T01:00:06;-3.69;118.99
70867;HTU21D;58487;53.474;49.470;2023-03-01T01:02:33;-3.54;118.99
70867;HTU21D;58487;53.474;49.470;2023-03-01T01:05:00;-3.66;118.99
70867;HTU21D;58487;53.474;49.470;2023-03-01T01:07:26;-3.51;118.99
70867;HTU21D;58487;53.474;49.470;2023-03-01T01:09:53;-3.58;96.12
70867;HTU21D;58487;53.474;49.470;2023-03-01T01:12:19;-3.62;118.99
70867;HTU21D;58487;53.474;49.470;2023-03-01T01:14:45;-3.52;97.78
70867;HTU21D;58487;53.474;49.470;2023-03-01T01:17:12;-3.53;92.64
70867;HTU21D;58487;53.474;49.470;2023-03-01T01:19:38;-3.42;91.30
70867;HTU21D;58487;53.474;49.470;2023-03-01T01:22:04;-3.39;93.07
70867;HTU21D;58487;53.474;49.470;2023-03-01T01:24:30;-3.36;92.87
70867;HTU21D;58487;53.474;49.470;2023-03-01T01:26:56;-3.35;96.24
70867;HTU21D;58487;53.474;49.470;2023-03-01T01:29:23;-3.32;91.69
70867;HTU21D;58487;53.474;49.470;2023-03-01T01:31:49;-3.26;92.18
70867;HTU21D;58487;53.474;49.470;2023-03-01T01:34:17;-3.46;99.90
70867;HTU21D;58487;53.474;49.470;2023-03-01T01:36:44;-3.24;93.09
70867;HTU21D;58487;53.474;49.470;2023-03-01T01:39:13;-3.26;93.66
70867;HTU21D;58487;53.474;49.470;2023-03-01T01:41:40;-3.38;92.27
70867;HTU21D;58487;53.474;49.470;2023-03-01T01:44:26;-3.46;90.89
70867;HTU21D;58487;53.474;49.470;2023-03-01T01:47:02;-3.51;92.16
70867;HTU21D;58487;53.474;49.470;2023-03-01T01:57:13;-3.48;90.43
70867;HTU21D;58487;53.474;49.470;2023-03-01T01:59:43;-3.56;89.62
70867;HTU21D;58487;53.474;49.470;2023-03-01T02:02:11;-3.82;89.12
70867;HTU21D;58487;53.474;49.470;2023-03-01T02:04:37;-3.08;89.33
70867;HTU21D;58487;53.474;49.470;2023-03-01T02:07:13;-3.15;88.22
70867;HTU21D;58487;53.474;49.470;2023-03-01T02:09:42;-3.21;88.69
70867;HTU21D;58487;53.474;49.470;2023-03-01T02:12:13;-3.19;88.23
70867;HTU21D;58487;53.474;49.470;2023-03-01T02:14:39;-3.35;89.89
70867;HTU21D;58487;53.474;49.470;2023-03-01T02:17:05;-3.00;89.34
70867;HTU21D;58487;53.474;49.470;2023-03-01T02:19:48;-3.21;90.18
70867;HTU21D;58487;53.474;49.470;2023-03-01T02:22:25;-3.17;91.50
70867;HTU21D;58487;53.474;49.470;2023-03-01T02:30:43;-3.25;88.47
70867;HTU21D;58487;53.474;49.470;2023-03-01T02:33:29;-3.25;89.14
70867;HTU21D;58487;53.474;49.470;2023-03-01T02:36:05;-3.01;88.15
70867;HTU21D;58487;53.474;49.470;2023-03-01T02:38:32;-3.11;87.57
70867;HTU21D;58487;53.474;49.470;2023-03-01T02:41:00;-3.05;88.70
70867;HTU21D;58487;53.474;49.470;2023-03-01T02:43:30;-3.03;88.56
70867;HTU21D;58487;53.474;49.470;2023-03-01T02:45:59;-3.05;87.59
70867;HTU21D;58487;53.474;49.470;2023-03-01T02:48:25;-3.21;87.61
70867;HTU21D;58487;53.474;49.470;2023-03-01T02:51:03;-3.26;87.55
70867;HTU21D;58487;53.474;49.470;2023-03-01T02:56:18;-3.01;88.22
70867;HTU21D;58487;53.474;49.470;2023-03-01T02:58:44;-3.08;87.93
70867;HTU21D;58487;53.474;49.470;2023-03-01T03:01:14;-3.32;88.51
70867;HTU21D;58487;53.474;49.470;2023-03-01T03:03:42;-3.30;88.80
70867;HTU21D;58487;53.474;49.470;2023-03-01T03:06:08;-3.24;89.45
70867;HTU21D;58487;53.474;49.470;2023-03-01T03:08:34;-3.57;90.45
70867;HTU21D;58487;53.474;49.470;2023-03-01T03:11:01;-3.49;91.95
70867;HTU21D;58487;53.474;49.470;2023-03-01T03:13:27;-3.48;91.82
70867;HTU21D;58487;53.474;49.470;2023-03-01T03:15:55;-3.50;91.34
70867;HTU21D;58487;53.474;49.470;2023-03-01T03:18:23;-3.58;91.59
70867;HTU21D;58487;53.474;49.470;2023-03-01T03:20:52;-3.54;91.35
70867;HTU21D;58487;53.474;49.470;2023-03-01T03:23:20;-3.10;91.06
70867;HTU21D;58487;53.474;49.470;2023-03-01T03:25:49;-3.25;91.21
70867;HTU21D;58487;53.474;49.470;2023-03-01T03:28:15;-3.13;90.88
70867;HTU21D;58487;53.474;49.470;2023-03-01T03:30:42;-3.27;90.95
70867;HTU21D;58487;53.474;49.470;2023-03-01T03:33:11;-3.35;90.92
70867;HTU21D;58487;53.474;49.470;2023-03-01T03:35:47;-3.39;91.17
70867;HTU21D;58487;53.474;49.470;2023-03-01T03:38:15;-3.25;90.92
70867;HTU21D;58487;53.474;49.470;2023-03-01T03:40:46;-3.10;91.31
70867;HTU21D;58487;53.474;49.470;2023-03-01T03:43:21;-3.43;90.79
70867;HTU21D;58487;53.474;49.470;2023-03-01T03:45:49;-3.43;91.40
70867;HTU21D;58487;53.474;49.470;2023-03-01T03:48:16;-3.45;91.57
70867;HTU21D;58487;53.474;49.470;2023-03-01T03:50:49;-3.39;90.93
70867;HTU21D;58487;53.474;49.470;2023-03-01T03:53:16;-3.22;90.60
70867;HTU21D;58487;53.474;49.470;2023-03-01T03:55:42;-3.12;91.22
70867;HTU21D;58487;53.474;49.470;2023-03-01T03:58:10;-3.58;90.69
70867;HTU21D;58487;53.474;49.470;2023-03-01T04:00:39;-3.25;90.95
70867;HTU21D;58487;53.474;49.470;2023-03-01T04:03:06;-3.02;90.73
70867;HTU21D;58487;53.474;49.470;2023-03-01T04:05:33;-3.08;89.80
70867;HTU21D;58487;53.474;49.470;2023-03-01T04:08:00;-2.89;89.85
70867;HTU21D;58487;53.474;49.470;2023-03-01T04:10:31;-2.95;89.53
70867;HTU21D;58487;53.474;49.470;2023-03-01T04:12:58;-3.01;89.88
70867;HTU21D;58487;53.474;49.470;2023-03-01T04:15:25;-3.12;89.43
70867;HTU21D;58487;53.474;49.470;2023-03-01T04:17:55;-2.94;89.25
70867;HTU21D;58487;53.474;49.470;2023-03-01T04:20:24;-2.96;89.57
70867;HTU21D;58487;53.474;49.470;2023-03-01T04:22:53;-2.89;88.78
70867;HTU21D;58487;53.474;49.470;2023-03-01T04:25:23;-2.91;87.97
70867;HTU21D;58487;53.474;49.470;2023-03-01T04:27:50;-2.71;88.08
70867;HTU21D;58487;53.474;49.470;2023-03-01T04:30:16;-2.65;88.30
70867;HTU21D;58487;53.474;49.470;2023-03-01T04:32:42;-2.73;87.59
70867;HTU21D;58487;53.474;49.470;2023-03-01T04:35:09;-2.69;86.77
70867;HTU21D;58487;53.474;49.470;2023-03-01T04:37:35;-2.72;87.15
70867;HTU21D;58487;53.474;49.470;2023-03-01T04:40:02;-2.54;86.57
70867;HTU21D;58487;53.474;49.470;2023-03-01T04:42:42;-2.42;86.75
70867;HTU21D;58487;53.474;49.470;2023-03-01T04:45:09;-2.37;88.27
70867;HTU21D;58487;53.474;49.470;2023-03-01T04:47:46;-2.31;87.42
70867;HTU21D;58487;53.474;49.470;2023-03-01T04:50:15;-2.26;92.09
70867;HTU21D;58487;53.474;49.470;2023-03-01T04:52:43;-2.21;89.21
70867;HTU21D;58487;53.474;49.470;2023-03-01T04:55:10;-2.15;85.96
70867;HTU21D;58487;53.474;49.470;2023-03-01T04:57:36;-2.14;87.86
70867;HTU21D;58487;53.474;49.470;2023-03-01T05:00:04;-2.28;90.20
70867;HTU21D;58487;53.474;49.470;2023-03-01T05:02:53;-2.12;89.60
70867;HTU21D;58487;53.474;49.470;2023-03-01T05:07:56;-2.26;88.55
70867;HTU21D;58487;53.474;49.470;2023-03-01T05:10:23;-2.41;91.82
70867;HTU21D;58487;53.474;49.470;2023-03-01T05:12:49;-2.62;94.80
70867;HTU21D;58487;53.474;49.470;2023-03-01T05:15:18;-2.76;106.40
70867;HTU21D;58487;53.474;49.470;2023-03-01T05:17:44;-2.33;94.17
70867;HTU21D;58487;53.474;49.470;2023-03-01T05:20:10;-2.26;87.83
70867;HTU21D;58487;53.474;49.470;2023-03-01T05:22:36;-2.17;97.08
70867;HTU21D;58487;53.474;49.470;2023-03-01T05:25:04;-2.18;104.38
70867;HTU21D;58487;53.474;49.470;2023-03-01T05:27:30;-2.15;95.18
70867;HTU21D;58487;53.474;49.470;2023-03-01T05:29:56;-2.37;107.77
70867;HTU21D;58487;53.474;49.470;2023-03-01T05:32:22;-2.64;116.39
70867;HTU21D;58487;53.474;49.470;2023-03-01T05:34:48;-2.20;118.99
70867;HTU21D;58487;53.474;49.470;2023-03-01T05:37:14;-2.13;95.77
70867;HTU21D;58487;53.474;49.470;2023-03-01T05:39:40;-2.29;102.76
70867;HTU21D;58487;53.474;49.470;2023-03-01T05:42:10;-2.19;104.95
70867;HTU21D;58487;53.474;49.470;2023-03-01T05:44:36;-2.50;118.99
70867;HTU21D;58487;53.474;49.470;2023-03-01T05:47:02;-2.35;118.99
70867;HTU21D;58487;53.474;49.470;2023-03-01T05:49:28;-2.23;118.99
70867;HTU21D;58487;53.474;49.470;2023-03-01T05:51:55;-2.12;118.99
70867;HTU21D;58487;53.474;49.470;2023-03-01T05:54:22;-2.09;118.99
70867;HTU21D;58487;53.474;49.470;2023-03-01T05:56:48;-2.03;118.99
70867;HTU21D;58487;53.474;49.470;2023-03-01T05:59:14;-2.02;118.99
70867;HTU21D;58487;53.474;49.470;2023-03-01T06:01:42;-2.15;118.99
70867;HTU21D;58487;53.474;49.470;2023-03-01T06:04:08;-2.16;118.99
70867;HTU21D;58487;53.474;49.470;2023-03-01T06:06:36;-2.31;118.99
70867;HTU21D;58487;53.474;49.470;2023-03-01T06:09:07;-2.18;116.94
70867;HTU21D;58487;53.474;49.470;2023-03-01T06:11:36;-2.28;114.92
70867;HTU21D;58487;53.474;49.470;2023-03-01T06:14:03;-2.24;111.93
70867;HTU21D;58487;53.474;49.470;2023-03-01T06:16:30;-2.12;109.12
70867;HTU21D;58487;53.474;49.470;2023-03-01T06:18:56;-2.12;118.99
70867;HTU21D;58487;53.474;49.470;2023-03-01T06:21:22;-2.10;118.99
70867;HTU21D;58487;53.474;49.470;2023-03-01T06:23:48;-2.44;118.32
70867;HTU21D;58487;53.474;49.470;2023-03-01T06:26:15;-2.31;118.99
70867;HTU21D;58487;53.474;49.470;2023-03-01T06:28:41;-2.06;118.99
70867;HTU21D;58487;53.474;49.470;2023-03-01T06:31:08;-2.18;118.99
70867;HTU21D;58487;53.474;49.470;2023-03-01T06:33:34;-1.86;118.99
70867;HTU21D;58487;53.474;49.470;2023-03-01T06:36:02;-1.74;118.99
70867;HTU21D;58487;53.474;49.470;2023-03-01T06:38:28;-1.76;118.99
70867;HTU21D;58487;53.474;49.470;2023-03-01T06:40:55;-1.65;118.99
70867;HTU21D;58487;53.474;49.470;2023-03-01T06:43:22;-1.86;118.99
70867;HTU21D;58487;53.474;49.470;2023-03-01T06:45:49;-2.24;118.99
70867;HTU21D;58487;53.474;49.470;2023-03-01T06:48:16;-1.89;118.99
70867;HTU21D;58487;53.474;49.470;2023-03-01T06:50:43;-1.65;118.99
70867;HTU21D;58487;53.474;49.470;2023-03-01T06:53:09;-1.94;118.99
70867;HTU21D;58487;53.474;49.470;2023-03-01T06:55:35;-1.70;118.99
70867;HTU21D;58487;53.474;49.470;2023-03-01T06:58:02;-2.20;118.99
70867;HTU21D;58487;53.474;49.470;2023-03-01T07:00:29;-2.14;118.99
70867;HTU21D;58487;53.474;49.470;2023-03-01T07:02:58;-2.15;118.99
70867;HTU21D;58487;53.474;49.470;2023-03-01T07:05:25;-2.15;118.99
70867;HTU21D;58487;53.474;49.470;2023-03-01T07:07:53;-2.32;118.99
70867;HTU21D;58487;53.474;49.470;2023-03-01T07:10:19;-2.59;118.99
70867;HTU21D;58487;53.474;49.470;2023-03-01T07:12:46;-2.54;118.99
70867;HTU21D;58487;53.474;49.470;2023-03-01T07:15:12;-2.66;118.99
70867;HTU21D;58487;53.474;49.470;2023-03-01T07:17:38;-2.28;118.99
70867;HTU21D;58487;53.474;49.470;2023-03-01T07:20:04;-1.75;118.99
70867;HTU21D;58487;53.474;49.470;2023-03-01T07:22:30;-1.87;118.99
70867;HTU21D;58487;53.474;49.470;2023-03-01T07:24:57;-1.68;118.99
70867;HTU21D;58487;53.474;49.470;2023-03-01T07:27:23;-1.30;94.88
70867;HTU21D;58487;53.474;49.470;2023-03-01T07:29:49;-1.21;92.01
70867;HTU21D;58487;53.474;49.470;2023-03-01T07:32:15;-0.68;84.26
70867;HTU21D;58487;53.474;49.470;2023-03-01T07:34:42;-1.04;92.82
70867;HTU21D;58487;53.474;49.470;2023-03-01T07:37:08;-0.69;113.73
70867;HTU21D;58487;53.474;49.470;2023-03-01T07:39:34;-0.67;118.99
70867;HTU21D;58487;53.474;49.470;2023-03-01T07:42:00;-0.60;118.99
70867;HTU21D;58487;53.474;49.470;2023-03-01T07:44:26;-0.66;118.99
70867;HTU21D;58487;53.474;49.470;2023-03-01T07:46:52;-0.54;118.99
70867;HTU21D;58487;53.474;49.470;2023-03-01T07:49:22;-0.46;118.99
70867;HTU21D;58487;53.474;49.470;2023-03-01T07:51:48;-0.83;118.99
70867;HTU21D;58487;53.474;49.470;2023-03-01T07:54:14;-0.61;118.99
70867;HTU21D;58487;53.474;49.470;2023-03-01T07:56:40;-0.50;118.99
70867;HTU21D;58487;53.474;49.470;2023-03-01T07:59:06;-0.58;118.99
70867;HTU21D;58487;53.474;49.470;2023-03-01T08:01:32;-0.45;118.99
70867;HTU21D;58487;53.474;49.470;2023-03-01T08:03:58;-0.47;118.99
70867;HTU21D;58487;53.474;49.470;2023-03-01T08:06:24;-0.59;118.99
70867;HTU21D;58487;53.474;49.470;2023-03-01T08:08:50;-0.56;118.99
70867;HTU21D;58487;53.474;49.470;2023-03-01T08:11:16;-0.74;118.99
70867;HTU21D;58487;53.474;49.470;2023-03-01T08:13:43;-0.55;118.99
70867;HTU21D;58487;53.474;49.470;2023-03-01T08:16:14;-0.53;118.99
70867;HTU21D;58487;53.474;49.470;2023-03-01T08:18:41;-0.62;118.99
70867;HTU21D;58487;53.474;49.470;2023-03-01T08:21:15;-0.79;118.99
70867;HTU21D;58487;53.474;49.470;2023-03-01T08:23:42;-0.91;118.99
70867;HTU21D;58487;53.474;49.470;2023-03-01T08:26:10;-0.73;118.99
70867;HTU21D;58487;53.474;49.470;2023-03-01T08:28:38;-0.97;118.99
70867;HTU21D;58487;53.474;49.470;2023-03-01T08:31:19;-0.51;118.99
70867;HTU21D;58487;53.474;49.470;2023-03-01T08:33:47;-0.61;118.99
70867;HTU21D;58487;53.474;49.470;2023-03-01T08:36:28;-0.47;118.99
70867;HTU21D;58487;53.474;49.470;2023-03-01T08:38:55;-0.02;97.45
70867;HTU21D;58487;53.474;49.470;2023-03-01T08:41:21;0.46;118.99
70867;HTU21D;58487;53.474;49.470;2023-03-01T08:43:48;-0.27;118.99
70867;HTU21D;58487;53.474;49.470;2023-03-01T08:46:14;-0.09;118.99
70867;HTU21D;58487;53.474;49.470;2023-03-01T08:48:41;-0.22;118.99
70867;HTU21D;58487;53.474;49.470;2023-03-01T08:51:11;-0.11;118.99
70867;HTU21D;58487;53.474;49.470;2023-03-01T08:53:39;0.55;118.99
70867;HTU21D;58487;53.474;49.470;2023-03-01T08:56:06;0.22;118.99
70867;HTU21D;58487;53.474;49.470;2023-03-01T08:58:33;-0.03;118.99
70867;HTU21D;58487;53.474;49.470;2023-03-01T09:01:00;-0.22;118.99
70867;HTU21D;58487;53.474;49.470;2023-03-01T09:03:26;0.19;118.99
70867;HTU21D;58487;53.474;49.470;2023-03-01T09:05:53;-0.01;118.99
70867;HTU21D;58487;53.474;49.470;2023-03-01T09:08:25;0.10;118.99
70867;HTU21D;58487;53.474;49.470;2023-03-01T09:10:52;0.05;118.99
70867;HTU21D;58487;53.474;49.470;2023-03-01T09:13:18;-0.30;118.99
70867;HTU21D;58487;53.474;49.470;2023-03-01T09:15:44;-0.50;118.99
70867;HTU21D;58487;53.474;49.470;2023-03-01T09:18:10;-0.36;118.99
70867;HTU21D;58487;53.474;49.470;2023-03-01T09:20:36;-0.29;118.99
70867;HTU21D;58487;53.474;49.470;2023-03-01T09:23:02;-0.43;118.99
70867;HTU21D;58487;53.474;49.470;2023-03-01T09:25:28;-0.00;118.99
70867;HTU21D;58487;53.474;49.470;2023-03-01T09:27:55;0.25;118.99
70867;HTU21D;58487;53.474;49.470;2023-03-01T09:30:21;-0.66;118.99
70867;HTU21D;58487;53.474;49.470;2023-03-01T09:32:47;-0.46;118.99
70867;HTU21D;58487;53.474;49.470;2023-03-01T09:35:13;-0.25;118.99
70867;HTU21D;58487;53.474;49.470;2023-03-01T09:37:39;-0.56;118.99
70867;HTU21D;58487;53.474;49.470;2023-03-01T09:40:16;-0.73;118.99
70867;HTU21D;58487;53.474;49.470;2023-03-01T09:43:18;-0.43;118.99
70867;HTU21D;58487;53.474;49.470;2023-03-01T09:45:46;-0.34;118.99
70867;HTU21D;58487;53.474;49.470;2023-03-01T09:48:22;-1.06;118.99
70867;HTU21D;58487;53.474;49.470;2023-03-01T09:50:50;-0.39;118.99
70867;HTU21D;58487;53.474;49.470;2023-03-01T09:53:20;0.07;118.99
70867;HTU21D;58487;53.474;49.470;2023-03-01T09:56:03;0.12;118.99
70867;HTU21D;58487;53.474;49.470;2023-03-01T09:58:58;-0.07;118.99
70867;HTU21D;58487;53.474;49.470;2023-03-01T10:09:37;-1.10;118.99
70867;HTU21D;58487;53.474;49.470;2023-03-01T10:12:13;-1.06;118.99
70867;HTU21D;58487;53.474;49.470;2023-03-01T10:19:51;-0.34;118.99
70867;HTU21D;58487;53.474;49.470;2023-03-01T10:22:36;-0.08;118.99
70867;HTU21D;58487;53.474;49.470;2023-03-01T10:25:03;-0.43;118.99
70867;HTU21D;58487;53.474;49.470;2023-03-01T10:30:20;-0.96;118.99
70867;HTU21D;58487;53.474;49.470;2023-03-01T10:32:49;-1.21;118.99
70867;HTU21D;58487;53.474;49.470;2023-03-01T10:35:34;-0.90;118.99
70867;HTU21D;58487;53.474;49.470;2023-03-01T10:38:10;-1.17;118.99
70867;HTU21D;58487;53.474;49.470;2023-03-01T10:40:50;-1.61;118.99
70867;HTU21D;58487;53.474;49.470;2023-03-01T10:43:17;-1.61;118.99
70867;HTU21D;58487;53.474;49.470;2023-03-01T10:45:44;-1.58;118.99
70867;HTU21D;58487;53.474;49.470;2023-03-01T10:48:20;-1.50;118.99
70867;HTU21D;58487;53.474;49.470;2023-03-01T10:53:47;-1.46;118.99
70867;HTU21D;58487;53.474;49.470;2023-03-01T10:56:15;-1.60;118.99
70867;HTU21D;58487;53.474;49.470;2023-03-01T10:58:58;-1.84;118.99
70867;HTU21D;58487;53.474;49.470;2023-03-01T11:01:35;-1.99;118.99
70867;HTU21D;58487;53.474;49.470;2023-03-01T11:06:37;-1.75;118.99
70867;HTU21D;58487;53.474;49.470;2023-03-01T11:11:42;-1.91;118.99
70867;HTU21D;58487;53.474;49.470;2023-03-01T11:14:38;-1.75;118.99
70867;HTU21D;58487;53.474;49.470;2023-03-01T11:17:25;-1.61;118.99
70867;HTU21D;58487;53.474;49.470;2023-03-01T11:22:47;-0.72;118.99
70867;HTU21D;58487;53.474;49.470;2023-03-01T11:25:15;0.16;118.99
70867;HTU21D;58487;53.474;49.470;2023-03-01T11:27:44;0.25;118.99
70867;HTU21D;58487;53.474;49.470;2023-03-01T11:30:31;-0.40;118.99
70867;HTU21D;58487;53.474;49.470;2023-03-01T11:35:56;-0.13;118.99
70867;HTU21D;58487;53.474;49.470;2023-03-01T11:38:25;1.05;118.99
70867;HTU21D;58487;53.474;49.470;2023-03-01T11:41:08;0.28;118.99
70867;HTU21D;58487;53.474;49.470;2023-03-01T11:43:49;-0.50;118.99
70867;HTU21D;58487;53.474;49.470;2023-03-01T11:55:44;0.77;118.99
70867;HTU21D;58487;53.474;49.470;2023-03-01T12:03:58;1.09;118.99
70867;HTU21D;58487;53.474;49.470;2023-03-01T12:20:02;1.67;118.99
70867;HTU21D;58487;53.474;49.470;2023-03-01T12:25:36;1.43;118.99
70867;HTU21D;58487;53.474;49.470;2023-03-01T12:37:25;1.64;118.99
70867;HTU21D;58487;53.474;49.470;2023-03-01T12:43:17;0.62;118.99
70867;HTU21D;58487;53.474;49.470;2023-03-01T12:45:59;0.09;118.99
70867;HTU21D;58487;53.474;49.470;2023-03-01T12:48:47;0.03;118.99
70867;HTU21D;58487;53.474;49.470;2023-03-01T12:51:22;0.14;118.99
70867;HTU21D;58487;53.474;49.470;2023-03-01T12:53:51;-0.07;118.99
70867;HTU21D;58487;53.474;49.470;2023-03-01T12:56:23;0.08;118.99
70867;HTU21D;58487;53.474;49.470;2023-03-01T13:10:02;-1.43;118.99
70867;HTU21D;58487;53.474;49.470;2023-03-01T13:18:04;-0.03;118.99
70867;HTU21D;58487;53.474;49.470;2023-03-01T13:21:00;-0.28;118.99
70867;HTU21D;58487;53.474;49.470;2023-03-01T13:23:35;-1.21;118.99
70867;HTU21D;58487;53.474;49.470;2023-03-01T13:26:15;-0.36;118.99
70867;HTU21D;58487;53.474;49.470;2023-03-01T13:33:52;-0.30;118.99
70867;HTU21D;58487;53.474;49.470;2023-03-01T13:46:47;-1.82;118.99
70867;HTU21D;58487;53.474;49.470;2023-03-01T13:49:21;-1.61;118.99
70867;HTU21D;58487;53.474;49.470;2023-03-01T13:51:48;-1.41;118.99
70867;HTU21D;58487;53.474;49.470;2023-03-01T13:54:25;-1.19;118.99
70867;HTU21D;58487;53.474;49.470;2023-03-01T13:56:51;-1.21;118.99
70867;HTU21D;58487;53.474;49.470;2023-03-01T13:59:20;-1.21;118.99
70867;HTU21D;58487;53.474;49.470;2023-03-01T14:01:57;-1.40;118.99
70867;HTU21D;58487;53.474;49.470;2023-03-01T14:04:30;-1.83;118.99
70867;HTU21D;58487;53.474;49.470;2023-03-01T14:07:16;-2.27;118.99
70867;HTU21D;58487;53.474;49.470;2023-03-01T14:09:45;-2.58;118.99
70867;HTU21D;58487;53.474;49.470;2023-03-01T14:20:12;-3.07;118.99
70867;HTU21D;58487;53.474;49.470;2023-03-01T14:22:41;-2.95;118.99
70867;HTU21D;58487;53.474;49.470;2023-03-01T14:25:28;-2.93;118.99
70867;HTU21D;58487;53.474;49.470;2023-03-01T14:28:00;-3.10;118.99
70867;HTU21D;58487;53.474;49.470;2023-03-01T14:30:32;-2.86;118.99
70867;HTU21D;58487;53.474;49.470;2023-03-01T14:33:03;-2.74;118.99
70867;HTU21D;58487;53.474;49.470;2023-03-01T14:35:34;-2.87;118.99
70867;HTU21D;58487;53.474;49.470;2023-03-01T14:38:01;-2.84;118.99
70867;HTU21D;58487;53.474;49.470;2023-03-01T14:40:32;-2.97;118.99
70867;HTU21D;58487;53.474;49.470;2023-03-01T14:43:00;-3.16;118.99
70867;HTU21D;58487;53.474;49.470;2023-03-01T14:45:29;-3.28;118.99
70867;HTU21D;58487;53.474;49.470;2023-03-01T14:48:00;-3.25;118.99
70867;HTU21D;58487;53.474;49.470;2023-03-01T14:50:31;-3.36;118.99
70867;HTU21D;58487;53.474;49.470;2023-03-01T14:53:04;-3.33;118.99
70867;HTU21D;58487;53.474;49.470;2023-03-01T14:55:36;-3.47;118.99
70867;HTU21D;58487;53.474;49.470;2023-03-01T14:58:05;-3.41;118.99
70867;HTU21D;58487;53.474;49.470;2023-03-01T15:00:33;-3.51;118.99
70867;HTU21D;58487;53.474;49.470;2023-03-01T15:03:06;-3.54;118.99
70867;HTU21D;58487;53.474;49.470;2023-03-01T15:05:39;-3.52;118.99
70867;HTU21D;58487;53.474;49.470;2023-03-01T15:08:27;-3.64;118.99
70867;HTU21D;58487;53.474;49.470;2023-03-01T15:13:33;-3.77;118.99
70867;HTU21D;58487;53.474;49.470;2023-03-01T15:16:06;-3.76;118.99
70867;HTU21D;58487;53.474;49.470;2023-03-01T15:18:34;-3.63;118.99
70867;HTU21D;58487;53.474;49.470;2023-03-01T15:21:13;-3.78;118.99
70867;HTU21D;58487;53.474;49.470;2023-03-01T15:23:41;-3.72;118.99
70867;HTU21D;58487;53.474;49.470;2023-03-01T15:26:23;-3.81;118.99
70867;HTU21D;58487;53.474;49.470;2023-03-01T15:28:52;-3.82;118.99
70867;HTU21D;58487;53.474;49.470;2023-03-01T15:31:27;-3.75;118.99
70867;HTU21D;58487;53.474;49.470;2023-03-01T15:34:09;-3.91;118.99
70867;HTU21D;58487;53.474;49.470;2023-03-01T15:36:46;-3.99;118.99
70867;HTU21D;58487;53.474;49.470;2023-03-01T15:45:22;-4.19;118.99
70867;HTU21D;58487;53.474;49.470;2023-03-01T15:47:57;-4.20;118.99
70867;HTU21D;58487;53.474;49.470;2023-03-01T15:50:30;-4.22;118.99
70867;HTU21D;58487;53.474;49.470;2023-03-01T15:53:00;-4.37;118.99
70867;HTU21D;58487;53.474;49.470;2023-03-01T15:55:32;-4.32;118.99
70867;HTU21D;58487;53.474;49.470;2023-03-01T15:58:15;-4.27;118.99
70867;HTU21D;58487;53.474;49.470;2023-03-01T16:00:44;-4.22;118.99
70867;HTU21D;58487;53.474;49.470;2023-03-01T16:03:11;-4.20;118.99
70867;HTU21D;58487;53.474;49.470;2023-03-01T16:05:38;-4.25;118.99
70867;HTU21D;58487;53.474;49.470;2023-03-01T16:08:05;-4.19;118.99
70867;HTU21D;58487;53.474;49.470;2023-03-01T16:10:33;-4.15;118.99
70867;HTU21D;58487;53.474;49.470;2023-03-01T16:13:00;-4.10;118.99
70867;HTU21D;58487;53.474;49.470;2023-03-01T16:15:31;-4.07;118.99
70867;HTU21D;58487;53.474;49.470;2023-03-01T16:17:59;-4.13;118.99
70867;HTU21D;58487;53.474;49.470;2023-03-01T16:20:27;-4.20;118.99
70867;HTU21D;58487;53.474;49.470;2023-03-01T16:22:54;-4.29;118.99
70867;HTU21D;58487;53.474;49.470;2023-03-01T16:25:22;-4.26;118.99
70867;HTU21D;58487;53.474;49.470;2023-03-01T16:27:50;-4.27;118.99
70867;HTU21D;58487;53.474;49.470;2023-03-01T16:30:20;-4.21;118.99
70867;HTU21D;58487;53.474;49.470;2023-03-01T16:32:48;-4.16;118.99
70867;HTU21D;58487;53.474;49.470;2023-03-01T16:35:17;-4.35;118.99
70867;HTU21D;58487;53.474;49.470;2023-03-01T16:37:44;-4.41;118.99
70867;HTU21D;58487;53.474;49.470;2023-03-01T16:40:37;-4.20;118.99
70867;HTU21D;58487;53.474;49.470;2023-03-01T16:43:07;-4.34;118.99
70867;HTU21D;58487;53.474;49.470;2023-03-01T16:45:35;-4.67;118.99
70867;HTU21D;58487;53.474;49.470;2023-03-01T16:48:03;-4.31;118.99
70867;HTU21D;58487;53.474;49.470;2023-03-01T16:50:32;-4.31;118.99
70867;HTU21D;58487;53.474;49.470;2023-03-01T16:53:00;-4.66;118.99
70867;HTU21D;58487;53.474;49.470;2023-03-01T16:55:31;-4.69;118.99
70867;HTU21D;58487;53.474;49.470;2023-03-01T16:58:02;-4.46;118.99
70867;HTU21D;58487;53.474;49.470;2023-03-01T17:00:33;-4.44;118.99
70867;HTU21D;58487;53.474;49.470;2023-03-01T17:03:02;-4.50;118.99
70867;HTU21D;58487;53.474;49.470;2023-03-01T17:05:29;-4.64;118.99
70867;HTU21D;58487;53.474;49.470;2023-03-01T17:07:58;-4.72;118.99
70867;HTU21D;58487;53.474;49.470;2023-03-01T17:10:32;-4.41;118.99
70867;HTU21D;58487;53.474;49.470;2023-03-01T17:12:59;-4.37;118.99
70867;HTU21D;58487;53.474;49.470;2023-03-01T17:15:26;-4.36;118.99
70867;HTU21D;58487;53.474;49.470;2023-03-01T17:17:53;-4.53;118.99
70867;HTU21D;58487;53.474;49.470;2023-03-01T17:20:20;-4.51;118.99
70867;HTU21D;58487;53.474;49.470;2023-03-01T17:22:50;-4.61;118.99
70867;HTU21D;58487;53.474;49.470;2023-03-01T17:25:18;-4.58;118.99
70867;HTU21D;58487;53.474;49.470;2023-03-01T17:27:45;-4.65;118.99
70867;HTU21D;58487;53.474;49.470;2023-03-01T17:30:14;-4.71;118.99
70867;HTU21D;58487;53.474;49.470;2023-03-01T17:32:42;-4.82;118.99